Time;durP1;ratioP1;P1;durP2;ratioP2;P2;SDS_P1;SDS_P2;PMS_P1;PMS_P2;Temp;Humidity;BMP_temperature;BMP_pressure;BME280_temperature;BME280_humidity;BME280_pressure;Samples;Min_cycle;Max_cycle;Signal;HPM_P1;HPM_P2
2022/08/28 00:00:38;;;;;;;0.93;0.50;;;;;;;-145.06;100.00;60892.56;4829530;28;21234;-89
2022/08/28 00:03:17;;;;;;;0.73;0.40;;;;;;;-145.06;100.00;60892.56;4825968;28;20120;-89
2022/08/28 00:05:58;;;;;;;0.60;0.40;;;;;;;-145.06;100.00;60892.56;4829631;28;20038;-88
2022/08/28 00:08:37;;;;;;;0.52;0.50;;;;;;;-145.06;100.00;60892.56;4860209;28;20033;-88
2022/08/28 00:11:16;;;;;;;0.70;0.38;;;;;;;-145.06;100.00;60892.56;4827845;28;20365;-88
2022/08/28 00:13:55;;;;;;;0.70;0.40;;;;;;;-145.06;100.00;60892.56;4827084;28;20034;-89
2022/08/28 00:16:34;;;;;;;0.57;0.37;;;;;;;-145.06;100.00;60892.56;4827649;28;20042;-88
2022/08/28 00:19:15;;;;;;;0.95;0.32;;;;;;;-145.06;100.00;60892.56;4831176;28;20261;-89
2022/08/28 00:21:54;;;;;;;0.55;0.30;;;;;;;-145.06;100.00;60892.56;4829109;28;20041;-89
2022/08/28 00:24:33;;;;;;;1.00;0.33;;;;;;;-145.06;100.00;60892.56;4824620;28;20022;-88
2022/08/28 00:30:10;;;;;;;0.30;0.30;;;;;;;-145.06;100.00;60892.56;4828009;28;20274;-88
2022/08/28 00:32:52;;;;;;;0.70;0.40;;;;;;;-145.06;100.00;60892.56;4832145;28;20094;-88
2022/08/28 00:35:31;;;;;;;1.17;0.47;;;;;;;-145.06;100.00;60892.56;4828052;28;20480;-88
2022/08/28 00:38:11;;;;;;;0.73;0.30;;;;;;;-145.06;100.00;60892.56;4830062;28;20120;-88
2022/08/28 00:40:52;;;;;;;0.68;0.30;;;;;;;-145.06;100.00;60892.56;4831635;28;20276;-88
2022/08/28 00:43:43;;;;;;;4.57;0.60;;;;;;;-145.06;100.00;60892.56;4828786;28;20396;-89
2022/08/28 00:46:23;;;;;;;1.25;0.50;;;;;;;-145.06;100.00;60892.56;4826309;28;20575;-88
2022/08/28 00:49:02;;;;;;;0.57;0.40;;;;;;;-145.06;100.00;60892.56;4831394;28;20065;-88
2022/08/28 00:54:51;;;;;;;1.10;0.28;;;;;;;-145.06;100.00;60892.56;4826273;28;20030;-88
2022/08/28 00:57:39;;;;;;;2.58;0.50;;;;;;;-145.06;100.00;60892.56;4827470;28;20429;-88
2022/08/28 01:00:30;;;;;;;2.42;0.45;;;;;;;-145.06;100.00;60892.56;4832744;28;20270;-89
2022/08/28 01:03:09;;;;;;;0.82;0.38;;;;;;;-145.06;100.00;60892.56;4852959;28;20268;-87
2022/08/28 01:05:48;;;;;;;0.30;0.20;;;;;;;-145.06;100.00;60892.56;4825841;28;20034;-88
2022/08/28 01:08:29;;;;;;;0.88;0.38;;;;;;;-145.06;100.00;60892.56;4830460;28;20121;-89
2022/08/28 01:11:09;;;;;;;0.70;0.20;;;;;;;-145.06;100.00;60892.56;4828038;28;20026;-88
2022/08/28 01:13:50;;;;;;;2.30;0.47;;;;;;;-145.06;100.00;60892.56;4828275;28;20395;-88
2022/08/28 01:16:30;;;;;;;1.40;0.38;;;;;;;-145.06;100.00;60892.56;4827085;28;20046;-88
2022/08/28 01:19:19;;;;;;;0.43;0.30;;;;;;;-145.06;100.00;60892.56;4833719;28;20034;-89
2022/08/28 01:22:13;;;;;;;0.57;0.20;;;;;;;-145.06;100.00;60892.56;4828325;28;20029;-88
2022/08/28 01:24:57;;;;;;;0.95;0.20;;;;;;;-145.06;100.00;60892.56;4845433;28;20030;-88
2022/08/28 01:27:40;;;;;;;0.90;0.30;;;;;;;-145.06;100.00;60892.56;4828163;28;20037;-88
2022/08/28 01:30:21;;;;;;;0.60;0.20;;;;;;;-145.06;100.00;60892.56;4832414;28;20143;-88
2022/08/28 01:33:00;;;;;;;0.40;0.28;;;;;;;-145.06;100.00;60892.56;4828054;28;20113;-89
2022/08/28 01:35:42;;;;;;;1.15;0.40;;;;;;;-145.06;100.00;60892.56;4831338;28;20041;-87
2022/08/28 01:38:21;;;;;;;0.50;0.30;;;;;;;-145.06;100.00;60892.56;4831048;28;20037;-88
2022/08/28 01:41:00;;;;;;;0.68;0.25;;;;;;;-145.06;100.00;60892.56;4827374;28;20116;-88
2022/08/28 01:43:41;;;;;;;0.45;0.20;;;;;;;-145.06;100.00;60892.56;4831481;28;20037;-88
2022/08/28 01:46:20;;;;;;;0.75;0.22;;;;;;;-145.06;100.00;60892.56;4830926;28;20038;-88
2022/08/28 01:49:00;;;;;;;0.40;0.20;;;;;;;-145.06;100.00;60892.56;4836395;28;20751;-88
2022/08/28 01:51:40;;;;;;;0.65;0.30;;;;;;;-145.06;100.00;60892.56;4836811;28;20038;-88
2022/08/28 01:54:19;;;;;;;0.85;0.32;;;;;;;-145.06;100.00;60892.56;4829956;28;20460;-87
2022/08/28 01:56:58;;;;;;;1.17;0.40;;;;;;;-145.06;100.00;60892.56;4826347;28;20030;-87
2022/08/28 01:59:37;;;;;;;0.85;0.50;;;;;;;-145.06;100.00;60892.56;4835128;28;20516;-88
2022/08/28 02:02:16;;;;;;;0.73;0.30;;;;;;;-145.06;100.00;60892.56;4853503;28;20136;-89
2022/08/28 02:04:55;;;;;;;0.43;0.30;;;;;;;-145.06;100.00;60892.56;4831968;28;20385;-89
2022/08/28 02:07:34;;;;;;;0.53;0.20;;;;;;;-145.06;100.00;60892.56;4830749;28;20065;-88
2022/08/28 02:10:15;;;;;;;0.38;0.20;;;;;;;-145.06;100.00;60892.56;4832439;28;20276;-89
2022/08/28 02:12:54;;;;;;;;;;;;;;;-145.06;100.00;60892.56;4830107;28;20361;-88
2022/08/28 02:15:34;;;;;;;;;;;;;;;-145.06;100.00;60892.56;4833312;28;19913;-88
2022/08/28 02:18:13;;;;;;;;;;;;;;;-145.06;100.00;60892.56;4831043;28;20256;-89
2022/08/28 02:20:52;;;;;;;0.28;0.20;;;;;;;-145.06;100.00;60892.56;4832445;28;19917;-88
2022/08/28 02:23:32;;;;;;;1.20;0.20;;;;;;;-145.06;100.00;60892.56;4826118;28;20038;-88
2022/08/28 02:26:12;;;;;;;0.90;0.30;;;;;;;-145.06;100.00;60892.56;4832647;28;20037;-89
2022/08/28 02:28:51;;;;;;;0.60;0.30;;;;;;;-145.06;100.00;60892.56;4832838;28;20592;-89
2022/08/28 02:31:30;;;;;;;1.05;0.20;;;;;;;-145.06;100.00;60892.56;4827156;28;20042;-88
2022/08/28 02:34:10;;;;;;;0.73;0.30;;;;;;;-145.06;100.00;60892.56;4840233;28;20061;-88
2022/08/28 02:36:49;;;;;;;0.40;0.20;;;;;;;-145.06;100.00;60892.56;4828570;28;20038;-88
2022/08/28 02:39:28;;;;;;;0.47;0.30;;;;;;;-145.06;100.00;60892.56;4828964;28;20038;-88
2022/08/28 02:42:07;;;;;;;1.00;0.40;;;;;;;-145.06;100.00;60892.56;4828249;28;20786;-88
2022/08/28 02:44:46;;;;;;;0.93;0.40;;;;;;;-145.06;100.00;60892.56;4825973;28;20030;-88
2022/08/28 02:47:25;;;;;;;0.22;0.22;;;;;;;-145.06;100.00;60892.56;4831186;28;20484;-88
2022/08/28 02:50:06;;;;;;;1.90;0.38;;;;;;;-145.06;100.00;60892.56;4825643;28;20459;-89
2022/08/28 02:52:45;;;;;;;0.63;0.20;;;;;;;-145.06;100.00;60892.56;4827378;28;20026;-89
2022/08/28 02:55:24;;;;;;;0.63;0.30;;;;;;;-145.06;100.00;60892.56;4830072;28;20034;-88
2022/08/28 02:58:05;;;;;;;0.47;0.25;;;;;;;-145.06;100.00;60892.56;4833433;28;20072;-88
2022/08/28 03:00:44;;;;;;;0.40;0.30;;;;;;;-145.06;100.00;60892.56;4831178;28;20116;-89
2022/08/28 03:03:23;;;;;;;1.00;0.45;;;;;;;-145.06;100.00;60892.56;4829058;28;20029;-88
2022/08/28 03:06:03;;;;;;;1.00;0.33;;;;;;;-145.06;100.00;60892.56;4826309;28;20038;-88
2022/08/28 03:08:42;;;;;;;0.40;0.30;;;;;;;-145.06;100.00;60892.56;4828717;28;20355;-89
2022/08/28 03:11:22;;;;;;;1.70;0.30;;;;;;;-145.06;100.00;60892.56;4834367;28;20029;-88
2022/08/28 03:14:02;;;;;;;0.93;0.50;;;;;;;-145.06;100.00;60892.56;4830540;28;20328;-88
2022/08/28 03:16:41;;;;;;;0.63;0.32;;;;;;;-145.06;100.00;60892.56;4828379;28;20038;-88
2022/08/28 03:19:19;;;;;;;0.27;0.20;;;;;;;-145.06;100.00;60892.56;4829472;28;20033;-88
2022/08/28 03:21:59;;;;;;;0.60;0.30;;;;;;;-145.06;100.00;60892.56;4832087;28;20352;-87
2022/08/28 03:24:38;;;;;;;0.65;0.35;;;;;;;-145.06;100.00;60892.56;4828336;28;20037;-89
2022/08/28 03:27:17;;;;;;;1.13;0.40;;;;;;;-145.06;100.00;60892.56;4829555;28;20480;-88
2022/08/28 03:29:56;;;;;;;2.30;0.40;;;;;;;-145.06;100.00;60892.56;4829028;28;20156;-88
2022/08/28 03:32:35;;;;;;;1.23;0.43;;;;;;;-145.06;100.00;60892.56;4830232;28;20418;-89
2022/08/28 03:35:15;;;;;;;0.98;0.40;;;;;;;-145.06;100.00;60892.56;4831433;28;20038;-88
2022/08/28 03:37:54;;;;;;;0.32;0.30;;;;;;;-145.06;100.00;60892.56;4828323;28;20604;-88
2022/08/28 03:40:37;;;;;;;0.93;0.40;;;;;;;-145.06;100.00;60892.56;4828660;28;20029;-89
2022/08/28 03:43:19;;;;;;;0.57;0.40;;;;;;;-145.06;100.00;60892.56;4824929;28;20029;-88
2022/08/28 03:46:01;;;;;;;0.55;0.50;;;;;;;-145.06;100.00;60892.56;4827043;28;20034;-88
2022/08/28 03:48:40;;;;;;;0.30;0.28;;;;;;;-145.06;100.00;60892.56;4829741;28;20072;-88
2022/08/28 03:51:23;;;;;;;1.52;0.40;;;;;;;-145.06;100.00;60892.56;4829775;28;20353;-88
2022/08/28 03:54:03;;;;;;;1.63;0.38;;;;;;;-145.06;100.00;60892.56;4829077;28;20377;-89
2022/08/28 03:56:42;;;;;;;1.45;0.50;;;;;;;-145.06;100.00;60892.56;4830602;28;20025;-89
2022/08/28 03:59:21;;;;;;;0.63;0.43;;;;;;;-145.06;100.00;60892.56;4830529;28;20041;-87
2022/08/28 04:02:00;;;;;;;0.85;0.57;;;;;;;-145.06;100.00;60892.56;4828837;28;20535;-88
2022/08/28 04:04:39;;;;;;;1.00;0.40;;;;;;;-145.06;100.00;60892.56;4830465;28;20033;-88
2022/08/28 04:07:19;;;;;;;0.90;0.50;;;;;;;-145.06;100.00;60892.56;4827306;28;20039;-87
2022/08/28 04:09:57;;;;;;;0.98;0.50;;;;;;;-145.06;100.00;60892.56;4826437;28;20292;-88
2022/08/28 04:12:37;;;;;;;2.08;0.63;;;;;;;-145.06;100.00;60892.56;4828892;28;20041;-87
2022/08/28 04:15:16;;;;;;;1.88;0.68;;;;;;;-145.06;100.00;60892.56;4825704;28;20045;-89
2022/08/28 04:17:55;;;;;;;1.30;0.60;;;;;;;-145.06;100.00;60892.56;4822744;28;20062;-88
2022/08/28 04:20:35;;;;;;;1.08;0.60;;;;;;;-145.06;100.00;60892.56;4825585;28;20030;-89
2022/08/28 04:23:14;;;;;;;0.88;0.57;;;;;;;-145.06;100.00;60892.56;4825441;28;20129;-88
2022/08/28 04:25:53;;;;;;;0.97;0.63;;;;;;;-145.06;100.00;60892.56;4832031;28;20030;-87
2022/08/28 04:28:33;;;;;;;0.80;0.70;;;;;;;-145.06;100.00;60892.56;4832061;28;20041;-87
2022/08/28 04:31:13;;;;;;;;;;;;;;;-145.06;100.00;60892.56;4825531;28;20038;-87
2022/08/28 04:33:52;;;;;;;0.52;0.30;;;;;;;-145.06;100.00;60892.56;4825732;28;19922;-88
2022/08/28 04:36:34;;;;;;;1.30;0.67;;;;;;;-145.06;100.00;60892.56;4831548;28;20034;-89
2022/08/28 04:39:14;;;;;;;1.25;0.60;;;;;;;-145.06;100.00;60892.56;4826652;28;20034;-88
2022/08/28 04:41:56;;;;;;;0.80;0.50;;;;;;;-145.06;100.00;60892.56;4832676;28;20033;-88
2022/08/28 04:44:35;;;;;;;1.00;0.52;;;;;;;-145.06;100.00;60892.56;4827340;28;20038;-88
2022/08/28 04:47:14;;;;;;;1.37;0.60;;;;;;;-145.06;100.00;60892.56;4832533;28;20385;-88
2022/08/28 04:49:54;;;;;;;1.58;0.77;;;;;;;-145.06;100.00;60892.56;4828774;28;20296;-88
2022/08/28 04:52:33;;;;;;;2.05;0.60;;;;;;;-145.06;100.00;60892.56;4823144;28;20129;-89
2022/08/28 04:55:13;;;;;;;1.80;0.60;;;;;;;-145.06;100.00;60892.56;4827502;28;20389;-88
2022/08/28 04:57:52;;;;;;;1.55;0.70;;;;;;;-145.06;100.00;60892.56;4832586;28;20057;-87
2022/08/28 05:00:31;;;;;;;2.33;0.70;;;;;;;-145.06;100.00;60892.56;4829891;28;20038;-88
2022/08/28 05:03:10;;;;;;;1.98;0.73;;;;;;;-145.06;100.00;60892.56;4831316;28;20265;-88
2022/08/28 05:05:52;;;;;;;1.25;0.75;;;;;;;-145.06;100.00;60892.56;4830949;28;20037;-88
2022/08/28 05:08:31;;;;;;;1.40;0.75;;;;;;;-145.06;100.00;60892.56;4827617;28;20046;-88
2022/08/28 05:11:16;;;;;;;2.50;1.00;;;;;;;-145.06;100.00;60892.56;4830980;28;20042;-88
2022/08/28 05:13:55;;;;;;;1.65;0.73;;;;;;;-145.06;100.00;60892.56;4828405;28;20027;-88
2022/08/28 05:17:03;;;;;;;1.83;0.85;;;;;;;-145.06;100.00;60892.56;4831194;28;20069;-88
2022/08/28 05:19:42;;;;;;;1.27;0.80;;;;;;;-145.06;100.00;60892.56;4825013;28;20381;-88
2022/08/28 05:22:22;;;;;;;1.98;0.93;;;;;;;-145.06;100.00;60892.56;4833130;28;20258;-88
2022/08/28 05:25:02;;;;;;;2.90;0.73;;;;;;;-145.06;100.00;60892.56;4827411;28;20050;-88
2022/08/28 05:27:41;;;;;;;1.50;0.77;;;;;;;-145.06;100.00;60892.56;4831007;28;20440;-88
2022/08/28 05:30:19;;;;;;;1.13;0.80;;;;;;;-145.06;100.00;60892.56;4828347;28;20046;-88
2022/08/28 05:32:59;;;;;;;1.83;1.00;;;;;;;-145.06;100.00;60892.56;4838286;28;20038;-88
2022/08/28 05:35:40;;;;;;;1.00;0.77;;;;;;;-145.06;100.00;60892.56;4825311;28;20046;-87
2022/08/28 05:38:19;;;;;;;1.30;0.80;;;;;;;-145.06;100.00;60892.56;4834433;28;20038;-88
2022/08/28 05:40:58;;;;;;;1.37;0.83;;;;;;;-145.06;100.00;60892.56;4838980;28;20211;-88
2022/08/28 05:43:37;;;;;;;1.60;0.98;;;;;;;-145.06;100.00;60892.56;4828749;28;20034;-88
2022/08/28 05:46:16;;;;;;;2.05;0.80;;;;;;;-145.06;100.00;60892.56;4832192;28;20373;-88
2022/08/28 05:48:56;;;;;;;1.25;0.70;;;;;;;-145.06;100.00;60892.56;4831537;28;20034;-87
2022/08/28 05:51:39;;;;;;;2.25;0.90;;;;;;;-145.06;100.00;60892.56;4822897;28;20270;-87
2022/08/28 05:54:18;;;;;;;1.15;0.70;;;;;;;-145.06;100.00;60892.56;4835167;28;20033;-88
2022/08/28 05:56:56;;;;;;;1.40;0.60;;;;;;;-145.06;100.00;60892.56;4830908;28;20377;-88
2022/08/28 05:59:35;;;;;;;1.10;0.70;;;;;;;-145.06;100.00;60892.56;4833300;28;20367;-87
2022/08/28 06:02:15;;;;;;;1.90;0.98;;;;;;;-145.06;100.00;60892.56;4827212;28;20389;-89
2022/08/28 06:04:54;;;;;;;1.38;0.80;;;;;;;-145.06;100.00;60892.56;4825113;28;20374;-88
2022/08/28 06:07:33;;;;;;;2.80;0.88;;;;;;;-145.06;100.00;60892.56;4830406;28;20468;-89
2022/08/28 06:10:12;;;;;;;1.10;0.75;;;;;;;-145.06;100.00;60892.56;4826452;28;20614;-88
2022/08/28 06:12:51;;;;;;;1.33;0.70;;;;;;;-145.06;100.00;60892.56;4827493;28;20077;-88
2022/08/28 06:15:30;;;;;;;1.23;0.80;;;;;;;-145.06;100.00;60892.56;4833332;28;20037;-88
2022/08/28 06:18:11;;;;;;;2.40;1.00;;;;;;;-145.06;100.00;60892.56;4838717;28;20034;-88
2022/08/28 06:20:51;;;;;;;1.17;0.63;;;;;;;-145.06;100.00;60892.56;4829826;28;20117;-87
2022/08/28 06:23:30;;;;;;;1.10;0.90;;;;;;;-145.06;100.00;60892.56;4829590;28;20403;-88
2022/08/28 06:26:09;;;;;;;1.37;0.77;;;;;;;-145.06;100.00;60892.56;4826390;28;20037;-87
2022/08/28 06:28:48;;;;;;;1.25;0.70;;;;;;;-145.06;100.00;60892.56;4835454;28;20818;-88
2022/08/28 06:31:28;;;;;;;1.13;0.60;;;;;;;-145.06;100.00;60892.56;4826295;28;20384;-88
2022/08/28 06:34:08;;;;;;;2.20;0.90;;;;;;;-145.06;100.00;60892.56;4832368;28;20476;-87
2022/08/28 06:36:47;;;;;;;2.58;0.82;;;;;;;-145.06;100.00;60892.56;4838732;28;20025;-88
2022/08/28 06:39:26;;;;;;;1.35;0.80;;;;;;;-145.06;100.00;60892.56;4829660;28;20559;-87
2022/08/28 06:42:05;;;;;;;1.93;0.83;;;;;;;-145.06;100.00;60892.56;4828058;28;20034;-87
2022/08/28 06:44:44;;;;;;;1.25;0.73;;;;;;;-145.06;100.00;60892.56;4828562;28;20034;-87
2022/08/28 06:47:23;;;;;;;3.13;1.20;;;;;;;-145.06;100.00;60892.56;4829843;28;20030;-87
2022/08/28 06:50:03;;;;;;;2.90;0.90;;;;;;;-145.06;100.00;60892.56;4827910;28;20264;-88
2022/08/28 06:52:42;;;;;;;2.08;0.85;;;;;;;-145.06;100.00;60892.56;4826740;28;21600;-87
2022/08/28 06:55:21;;;;;;;2.03;0.85;;;;;;;-145.06;100.00;60892.56;4830403;28;20358;-89
2022/08/28 06:58:00;;;;;;;1.35;0.93;;;;;;;-145.06;100.00;60892.56;4824961;28;20034;-90
2022/08/28 07:00:40;;;;;;;1.42;0.88;;;;;;;-145.06;100.00;60892.56;4825883;28;20045;-88
2022/08/28 07:03:19;;;;;;;1.10;0.70;;;;;;;-145.06;100.00;60892.56;4856781;28;20038;-89
2022/08/28 07:06:00;;;;;;;2.17;0.70;;;;;;;-145.06;100.00;60892.56;4830487;28;20038;-89
2022/08/28 07:08:41;;;;;;;1.70;0.70;;;;;;;-145.06;100.00;60892.56;4841218;28;20037;-88
2022/08/28 07:11:26;;;;;;;3.25;0.85;;;;;;;-145.06;100.00;60892.56;4832107;28;20022;-87
2022/08/28 07:14:06;;;;;;;2.13;0.70;;;;;;;-145.06;100.00;60892.56;4833220;28;20034;-89
2022/08/28 07:16:45;;;;;;;1.65;0.70;;;;;;;-145.06;100.00;60892.56;4829113;28;20046;-89
2022/08/28 07:19:24;;;;;;;1.42;0.77;;;;;;;-145.06;100.00;60892.56;4823525;28;20034;-88
2022/08/28 07:22:04;;;;;;;1.70;0.90;;;;;;;-145.06;100.00;60892.56;4824859;28;20432;-88
2022/08/28 07:24:44;;;;;;;1.27;0.68;;;;;;;-145.06;100.00;60892.56;4854080;28;20037;-88
2022/08/28 07:27:24;;;;;;;2.00;0.70;;;;;;;-145.06;100.00;60892.56;4822109;28;20065;-86
2022/08/28 07:30:05;;;;;;;1.23;0.63;;;;;;;-145.06;100.00;60892.56;4828411;28;20034;-86
2022/08/28 07:32:48;;;;;;;1.52;0.57;;;;;;;-145.06;100.00;60892.56;4823420;28;20488;-86
2022/08/28 07:35:26;;;;;;;2.35;0.60;;;;;;;-145.06;100.00;60892.56;4828075;28;20057;-86
2022/08/28 07:38:05;;;;;;;2.45;0.77;;;;;;;-145.06;100.00;60892.56;4828243;28;20030;-86
2022/08/28 07:40:44;;;;;;;1.25;0.50;;;;;;;-145.06;100.00;60892.56;4827753;28;20038;-86
2022/08/28 07:46:29;;;;;;;1.52;0.68;;;;;;;-145.06;100.00;60892.56;4814396;28;20443;-86
2022/08/28 07:49:09;;;;;;;3.13;0.90;;;;;;;-145.06;100.00;60892.56;4827968;28;20460;-86
2022/08/28 07:51:48;;;;;;;1.83;0.60;;;;;;;-145.06;100.00;60892.56;4826817;28;20050;-86
2022/08/28 07:54:27;;;;;;;0.93;0.50;;;;;;;-145.06;100.00;60892.56;4825939;28;20073;-87
2022/08/28 07:57:08;;;;;;;0.93;0.60;;;;;;;-145.06;100.00;60892.56;4830155;28;20109;-86
2022/08/28 07:59:48;;;;;;;1.45;0.70;;;;;;;-145.06;100.00;60892.56;4828742;28;20041;-87
2022/08/28 08:02:28;;;;;;;2.38;0.70;;;;;;;-145.06;100.00;60892.56;4831759;28;20041;-86
2022/08/28 08:05:09;;;;;;;0.98;0.50;;;;;;;-145.06;100.00;60892.56;4826762;28;20037;-86
2022/08/28 08:07:48;;;;;;;1.42;0.65;;;;;;;-145.06;100.00;60892.56;4830664;28;20321;-87
2022/08/28 08:10:27;;;;;;;0.87;0.50;;;;;;;-145.06;100.00;60892.56;4827002;28;20030;-86
2022/08/28 08:13:06;;;;;;;0.52;0.50;;;;;;;-145.06;100.00;60892.56;4832523;28;20308;-85
2022/08/28 08:15:45;;;;;;;0.90;0.60;;;;;;;-145.06;100.00;60892.56;4828151;28;20381;-86
2022/08/28 08:18:24;;;;;;;1.73;0.65;;;;;;;-145.06;100.00;60892.56;4824528;28;20037;-86
2022/08/28 08:21:05;;;;;;;1.90;0.90;;;;;;;-145.06;100.00;60892.56;4828982;28;20468;-87
2022/08/28 08:23:45;;;;;;;0.80;0.50;;;;;;;-145.06;100.00;60892.56;4813976;28;20731;-87
2022/08/28 08:26:28;;;;;;;2.60;0.80;;;;;;;-145.06;100.00;60892.56;4849142;28;20504;-87
2022/08/28 08:29:08;;;;;;;0.88;0.55;;;;;;;-145.06;100.00;60892.56;4826424;28;20999;-86
2022/08/28 08:32:01;;;;;;;0.98;0.40;;;;;;;-145.06;100.00;60892.56;4824971;28;20295;-86
2022/08/28 08:34:44;;;;;;;2.05;0.60;;;;;;;-145.06;100.00;60892.56;4823682;28;20484;-86
2022/08/28 08:37:23;;;;;;;1.38;0.60;;;;;;;-145.06;100.00;60892.56;4827903;28;20045;-88
2022/08/28 08:40:03;;;;;;;1.73;0.70;;;;;;;-145.06;100.00;60892.56;4825975;28;20376;-89
2022/08/28 08:42:45;;;;;;;1.80;0.60;;;;;;;-145.06;100.00;60892.56;4831469;28;20277;-90
2022/08/28 08:45:26;;;;;;;0.90;0.60;;;;;;;-145.06;100.00;60892.56;4822310;28;20370;-89
2022/08/28 08:48:10;;;;;;;1.00;0.57;;;;;;;-145.06;100.00;60892.56;4821270;28;20034;-89
2022/08/28 08:50:50;;;;;;;1.20;0.55;;;;;;;-145.06;100.00;60892.56;4827882;28;20037;-88
2022/08/28 08:53:50;;;;;;;2.00;0.90;;;;;;;-145.06;100.00;60892.56;4826352;28;20034;-89
2022/08/28 08:56:29;;;;;;;;;;;;;;;-145.06;100.00;60892.56;4821849;28;20492;-90
2022/08/28 08:59:15;;;;;;;2.22;0.85;;;;;;;-145.06;100.00;60892.56;4829074;28;19921;-89
2022/08/28 09:02:10;;;;;;;2.78;1.20;;;;;;;-145.06;100.00;60892.56;4853049;28;20531;-89
2022/08/28 09:05:17;;;;;;;1.55;0.60;;;;;;;-145.06;100.00;60892.56;4828988;28;20029;-89
2022/08/28 09:08:01;;;;;;;1.13;0.57;;;;;;;-145.06;100.00;60892.56;4823272;28;20049;-89
2022/08/28 09:10:49;;;;;;;1.23;0.52;;;;;;;-145.06;100.00;60892.56;4825810;28;20037;-88
2022/08/28 09:13:43;;;;;;;0.85;0.65;;;;;;;-145.06;100.00;60892.56;4824923;28;20046;-89
2022/08/28 09:16:34;;;;;;;1.60;0.70;;;;;;;-145.06;100.00;60892.56;4836129;28;20034;-89
2022/08/28 09:19:18;;;;;;;1.30;0.65;;;;;;;-145.06;100.00;60892.56;4826778;28;20029;-89
2022/08/28 09:21:57;;;;;;;1.65;0.68;;;;;;;-145.06;100.00;60892.56;4822828;28;20025;-89
2022/08/28 09:24:39;;;;;;;1.02;0.57;;;;;;;-145.06;100.00;60892.56;4821376;28;20445;-88
2022/08/28 09:27:30;;;;;;;0.90;0.60;;;;;;;-145.06;100.00;60892.56;4824100;28;20038;-88
2022/08/28 09:30:10;;;;;;;2.45;1.00;;;;;;;-145.06;100.00;60892.56;4826352;28;20038;-89
2022/08/28 09:32:59;;;;;;;3.42;0.90;;;;;;;-145.06;100.00;60892.56;4828347;28;20034;-89
2022/08/28 09:35:38;;;;;;;1.88;0.80;;;;;;;-145.06;100.00;60892.56;4826940;28;20038;-89
2022/08/28 09:38:24;;;;;;;1.23;0.60;;;;;;;-145.06;100.00;60892.56;4828716;28;22789;-89
2022/08/28 09:44:14;;;;;;;1.15;0.60;;;;;;;-145.06;100.00;60892.56;4823945;28;20144;-89
2022/08/28 09:46:53;;;;;;;1.60;0.73;;;;;;;-145.06;100.00;60892.56;4845927;28;20050;-89
2022/08/28 09:49:32;;;;;;;1.20;0.70;;;;;;;-145.06;100.00;60892.56;4827899;28;20138;-89
2022/08/28 09:52:18;;;;;;;1.02;0.73;;;;;;;-145.06;100.00;60892.56;4822658;28;20373;-89
2022/08/28 09:54:58;;;;;;;2.45;0.82;;;;;;;-145.06;100.00;60892.56;4821301;28;20341;-89
2022/08/28 09:57:41;;;;;;;1.02;0.70;;;;;;;-145.06;100.00;60892.56;4831863;28;20038;-89
2022/08/28 10:00:21;;;;;;;1.40;0.93;;;;;;;-145.06;100.00;60892.56;4828526;28;20034;-90
2022/08/28 10:03:36;;;;;;;1.27;0.57;;;;;;;-145.06;100.00;60892.56;4821014;28;20042;-89
2022/08/28 10:06:31;;;;;;;1.88;0.63;;;;;;;-145.06;100.00;60892.56;4828636;28;20073;-89
2022/08/28 10:09:10;;;;;;;1.50;0.63;;;;;;;-145.06;100.00;60892.56;4837764;28;20025;-89
2022/08/28 10:12:15;;;;;;;1.20;0.60;;;;;;;-145.06;100.00;60892.56;4827992;28;20034;-89
2022/08/28 10:15:04;;;;;;;1.30;0.70;;;;;;;-145.06;100.00;60892.56;4825235;28;20037;-90
2022/08/28 10:18:14;;;;;;;1.13;0.60;;;;;;;-145.06;100.00;60892.56;4825399;28;20045;-87
2022/08/28 10:21:02;;;;;;;0.90;0.60;;;;;;;-145.06;100.00;60892.56;4817837;28;20382;-86
2022/08/28 10:24:09;;;;;;;1.63;0.63;;;;;;;-145.06;100.00;60892.56;4837853;28;20029;-85
2022/08/28 10:27:23;;;;;;;1.55;0.50;;;;;;;-145.06;100.00;60892.56;4842012;28;20054;-85
2022/08/28 10:30:10;;;;;;;0.63;0.50;;;;;;;-145.06;100.00;60892.56;4824841;28;20469;-85
2022/08/28 10:32:58;;;;;;;1.27;0.60;;;;;;;-145.06;100.00;60892.56;4824856;28;20042;-86
2022/08/28 10:36:04;;;;;;;0.80;0.60;;;;;;;-145.06;100.00;60892.56;4840996;28;20295;-85
2022/08/28 10:38:50;;;;;;;0.95;0.50;;;;;;;-145.06;100.00;60892.56;4821010;28;20034;-86
2022/08/28 10:41:36;;;;;;;0.70;0.50;;;;;;;-145.06;100.00;60892.56;4818422;28;20038;-87
2022/08/28 10:44:39;;;;;;;0.98;0.40;;;;;;;-145.06;100.00;60892.56;4827197;28;20169;-85
2022/08/28 10:47:21;;;;;;;0.45;0.40;;;;;;;-145.06;100.00;60892.56;4843012;28;20377;-85
2022/08/28 10:50:07;;;;;;;1.10;0.50;;;;;;;-145.06;100.00;60892.56;4822775;28;20033;-85
2022/08/28 10:52:56;;;;;;;0.50;0.40;;;;;;;-145.06;100.00;60892.56;4821885;28;20042;-86
2022/08/28 10:55:42;;;;;;;0.73;0.60;;;;;;;-145.06;100.00;60892.56;4822100;28;20466;-86
2022/08/28 10:58:24;;;;;;;1.00;0.40;;;;;;;-145.06;100.00;60892.56;4818654;28;20034;-86
2022/08/28 11:01:12;;;;;;;1.80;0.52;;;;;;;-145.06;100.00;60892.56;4827659;28;20029;-85
2022/08/28 11:03:54;;;;;;;1.02;0.30;;;;;;;-145.06;100.00;60892.56;4852221;28;20053;-85
2022/08/28 11:06:48;;;;;;;0.60;0.30;;;;;;;-145.06;100.00;60892.56;4823226;28;20124;-86
2022/08/28 11:09:37;;;;;;;1.10;0.30;;;;;;;-145.06;100.00;60892.56;4823975;28;20236;-85
2022/08/28 11:12:17;;;;;;;0.80;0.50;;;;;;;-145.06;100.00;60892.56;4816761;28;20038;-86
2022/08/28 11:14:56;;;;;;;0.70;0.50;;;;;;;-145.06;100.00;60892.56;4823097;28;20027;-86
2022/08/28 11:17:39;;;;;;;0.65;0.43;;;;;;;-145.06;100.00;60892.56;4818620;28;20041;-86
2022/08/28 11:20:24;;;;;;;1.08;0.50;;;;;;;-145.06;100.00;60892.56;4818374;28;20525;-85
2022/08/28 11:23:14;;;;;;;0.95;0.50;;;;;;;-145.06;100.00;60892.56;4820939;28;20480;-86
2022/08/28 11:25:58;;;;;;;1.30;0.60;;;;;;;-145.06;100.00;60892.56;4815536;28;20034;-86
2022/08/28 11:28:46;;;;;;;1.58;0.70;;;;;;;-145.06;100.00;60892.56;4823893;28;20029;-87
2022/08/28 11:31:29;;;;;;;0.70;0.40;;;;;;;-145.06;100.00;60892.56;4819051;28;20357;-86
2022/08/28 11:34:47;;;;;;;0.43;0.40;;;;;;;-145.06;100.00;60892.56;4825344;28;20066;-87
2022/08/28 11:37:38;;;;;;;1.58;0.50;;;;;;;-145.06;100.00;60892.56;4847038;28;20033;-86
2022/08/28 11:40:29;;;;;;;1.50;0.60;;;;;;;-145.06;100.00;60892.56;4819207;28;20366;-87
2022/08/28 11:43:13;;;;;;;1.02;0.50;;;;;;;-145.06;100.00;60892.56;4822303;28;20034;-87
2022/08/28 11:45:53;;;;;;;1.60;0.57;;;;;;;-145.06;100.00;60892.56;4849378;28;20038;-86
2022/08/28 11:48:32;;;;;;;;;;;;;;;-145.06;100.00;60892.56;4823187;28;20042;-86
2022/08/28 11:51:17;;;;;;;1.85;0.60;;;;;;;-145.06;100.00;60892.56;4825388;28;19913;-86
2022/08/28 11:54:28;;;;;;;0.68;0.38;;;;;;;-145.06;100.00;60892.56;4824298;28;20037;-86
2022/08/28 11:57:17;;;;;;;1.25;0.50;;;;;;;-145.06;100.00;60892.56;4827787;28;20029;-86
2022/08/28 11:59:56;;;;;;;0.50;0.40;;;;;;;-145.06;100.00;60892.56;4852570;28;20136;-86
2022/08/28 12:02:38;;;;;;;1.25;0.50;;;;;;;-145.06;100.00;60892.56;4828353;28;20496;-88
2022/08/28 12:05:17;;;;;;;1.20;0.40;;;;;;;-145.06;100.00;60892.56;4855439;28;20034;-87
2022/08/28 12:08:01;;;;;;;1.35;0.32;;;;;;;-145.06;100.00;60892.56;4829826;28;20034;-87
2022/08/28 12:10:47;;;;;;;0.50;0.30;;;;;;;-145.06;100.00;60892.56;4819323;28;20042;-87
2022/08/28 12:13:47;;;;;;;0.50;0.40;;;;;;;-145.06;100.00;60892.56;4835318;28;20033;-87
2022/08/28 12:16:26;;;;;;;1.42;0.50;;;;;;;-145.06;100.00;60892.56;4821036;28;20335;-87
2022/08/28 12:19:06;;;;;;;1.48;0.70;;;;;;;-145.06;100.00;60892.56;4820959;28;20034;-87
2022/08/28 12:21:45;;;;;;;1.23;0.60;;;;;;;-145.06;100.00;60892.56;4820923;28;20046;-86
2022/08/28 12:24:24;;;;;;;0.57;0.43;;;;;;;-145.06;100.00;60892.56;4823051;28;20026;-86
2022/08/28 12:27:05;;;;;;;1.38;0.30;;;;;;;-145.06;100.00;60892.56;4820483;28;20038;-89
2022/08/28 12:29:48;;;;;;;1.13;0.50;;;;;;;-145.06;100.00;60892.56;4815089;28;20042;-89
2022/08/28 12:32:55;;;;;;;0.70;0.40;;;;;;;-145.06;100.00;60892.56;4823753;28;20034;-95